Time;durP1;ratioP1;P1;durP2;ratioP2;P2;SDS_P1;SDS_P2;PMS_P1;PMS_P2;Temp;Humidity;BMP_temperature;BMP_pressure;BME280_temperature;BME280_humidity;BME280_pressure;Samples;Min_cycle;Max_cycle;Signal;HPM_P1;HPM_P2
2023/12/25 00:02:13;;;;;;;20.45;3.20;;;12.20;99.90;;;;;;5066849;28;20198;-40
2023/12/25 00:04:39;;;;;;;19.38;3.67;;;12.20;99.90;;;;;;5067504;28;20193;-36
2023/12/25 00:07:07;;;;;;;14.15;2.90;;;12.30;99.90;;;;;;5065705;28;20668;-40
2023/12/25 00:09:33;;;;;;;18.60;3.20;;;12.30;99.90;;;;;;5065147;28;20197;-36
2023/12/25 00:11:59;;;;;;;16.55;3.78;;;12.30;99.90;;;;;;5065613;28;20198;-40
2023/12/25 00:14:25;;;;;;;15.30;3.03;;;12.30;99.90;;;;;;5047081;28;20646;-39
2023/12/25 00:16:50;;;;;;;22.35;3.42;;;12.30;99.90;;;;;;5065161;28;20193;-37
2023/12/25 00:19:16;;;;;;;15.13;3.40;;;12.30;99.90;;;;;;5065280;28;20742;-39
2023/12/25 00:21:42;;;;;;;15.23;3.60;;;12.30;99.90;;;;;;5066119;28;20198;-38
2023/12/25 00:24:08;;;;;;;13.57;2.80;;;12.30;99.90;;;;;;5066064;28;20214;-39
2023/12/25 00:26:40;;;;;;;19.52;3.35;;;12.30;99.90;;;;;;5065379;28;20210;-37
2023/12/25 00:29:09;;;;;;;18.27;2.78;;;12.30;99.90;;;;;;5065575;28;20183;-38
2023/12/25 00:31:35;;;;;;;16.23;3.10;;;12.20;99.90;;;;;;5067016;28;20197;-38
2023/12/25 00:34:01;;;;;;;19.23;3.17;;;12.20;99.90;;;;;;5064117;28;21437;-39
2023/12/25 00:36:26;;;;;;;13.60;2.80;;;12.20;99.90;;;;;;5065018;28;20190;-39
2023/12/25 00:38:52;;;;;;;18.35;2.60;;;12.30;99.90;;;;;;5065702;28;20685;-40
2023/12/25 00:41:18;;;;;;;20.35;3.83;;;12.30;99.90;;;;;;5046808;28;20191;-40
2023/12/25 00:43:44;;;;;;;22.50;3.58;;;12.30;99.90;;;;;;5080936;28;20287;-39
2023/12/25 00:46:11;;;;;;;15.95;3.13;;;12.30;99.90;;;;;;5065888;28;20232;-40
2023/12/25 00:48:37;;;;;;;10.23;2.88;;;12.30;99.90;;;;;;5080582;28;20682;-37
2023/12/25 00:51:03;;;;;;;12.73;3.40;;;12.30;99.90;;;;;;5081834;28;20268;-38
2023/12/25 00:53:29;;;;;;;13.43;3.30;;;12.30;99.90;;;;;;5064422;28;20517;-37
2023/12/25 00:55:55;;;;;;;15.63;3.13;;;12.30;99.90;;;;;;5065367;28;20201;-38
2023/12/25 00:58:21;;;;;;;12.40;3.08;;;12.30;99.90;;;;;;5065910;28;20186;-39
2023/12/25 01:00:47;;;;;;;14.35;2.60;;;12.30;99.90;;;;;;5063300;28;20194;-38
2023/12/25 01:03:13;;;;;;;16.58;3.05;;;12.30;99.90;;;;;;5063300;28;20272;-40
2023/12/25 01:05:40;;;;;;;13.88;2.72;;;12.30;99.90;;;;;;5065753;28;20186;-38
2023/12/25 01:08:06;;;;;;;16.38;3.05;;;12.30;99.90;;;;;;5062862;28;20194;-38
2023/12/25 01:10:32;;;;;;;7.78;2.40;;;12.30;99.90;;;;;;5065135;28;20221;-41
2023/12/25 01:12:58;;;;;;;13.90;2.80;;;12.20;99.90;;;;;;5066520;28;20296;-37
2023/12/25 01:15:24;;;;;;;12.55;2.35;;;12.20;99.90;;;;;;5063857;28;20341;-39
2023/12/25 01:17:50;;;;;;;15.15;2.78;;;12.20;99.90;;;;;;5064705;28;20812;-40
2023/12/25 01:20:16;;;;;;;11.43;2.50;;;12.30;99.90;;;;;;5064530;28;20198;-37
2023/12/25 01:22:42;;;;;;;12.32;2.80;;;12.20;99.90;;;;;;5063941;28;20238;-36
2023/12/25 01:25:08;;;;;;;10.35;2.60;;;12.20;99.90;;;;;;5064168;28;20225;-37
2023/12/25 01:27:35;;;;;;;12.30;3.17;;;12.10;99.90;;;;;;5065102;28;20220;-40
2023/12/25 01:30:01;;;;;;;13.15;2.38;;;12.10;99.90;;;;;;5080013;28;20209;-38
2023/12/25 01:32:27;;;;;;;13.23;3.15;;;12.10;99.90;;;;;;5063420;28;20709;-39
2023/12/25 01:34:53;;;;;;;18.08;2.90;;;12.10;99.90;;;;;;5063787;28;20234;-37
2023/12/25 01:37:19;;;;;;;10.98;2.35;;;12.10;99.90;;;;;;5064275;28;20662;-39
2023/12/25 01:39:45;;;;;;;11.73;3.00;;;12.00;99.90;;;;;;5064284;28;20281;-39
2023/12/25 01:42:11;;;;;;;13.23;3.20;;;11.90;99.90;;;;;;5064158;28;20745;-39
2023/12/25 01:44:37;;;;;;;12.00;2.63;;;11.90;99.90;;;;;;5046664;28;20194;-38
2023/12/25 01:47:03;;;;;;;14.68;2.70;;;11.90;99.90;;;;;;5065476;28;20264;-38
2023/12/25 01:49:28;;;;;;;11.85;2.67;;;11.90;99.90;;;;;;5062595;28;20236;-44
2023/12/25 01:51:55;;;;;;;15.27;2.80;;;11.80;99.90;;;;;;5063292;28;20670;-41
2023/12/25 01:54:20;;;;;;;15.43;3.10;;;11.90;99.90;;;;;;5081065;28;20194;-40
2023/12/25 01:56:47;;;;;;;7.30;2.28;;;11.80;99.90;;;;;;5063470;28;20723;-37
2023/12/25 01:59:13;;;;;;;13.35;2.80;;;11.80;99.90;;;;;;5079541;28;20309;-41
2023/12/25 02:01:39;;;;;;;12.15;2.90;;;11.70;99.90;;;;;;5064827;28;20355;-41
2023/12/25 02:04:05;;;;;;;10.00;2.53;;;11.70;99.90;;;;;;5063722;28;20276;-38
2023/12/25 02:06:33;;;;;;;13.23;3.08;;;11.80;99.90;;;;;;5079884;28;20190;-42
2023/12/25 02:09:00;;;;;;;16.73;2.50;;;11.70;99.90;;;;;;5047997;28;20593;-39
2023/12/25 02:11:26;;;;;;;15.00;3.10;;;11.70;99.90;;;;;;5062341;28;20643;-42
2023/12/25 02:13:55;;;;;;;13.90;2.85;;;11.70;99.90;;;;;;5064693;28;20201;-36
2023/12/25 02:16:21;;;;;;;13.52;3.22;;;11.70;99.90;;;;;;5062933;28;20182;-38
2023/12/25 02:18:47;;;;;;;17.80;3.45;;;11.70;99.90;;;;;;5060887;28;20198;-40
2023/12/25 02:21:13;;;;;;;10.60;2.65;;;11.60;99.90;;;;;;5065112;28;20193;-38
2023/12/25 02:23:41;;;;;;;10.68;2.60;;;11.60;99.90;;;;;;5078643;28;20218;-38
2023/12/25 02:26:08;;;;;;;12.40;3.03;;;11.60;99.90;;;;;;5078045;28;20221;-38
2023/12/25 02:28:34;;;;;;;11.00;2.80;;;11.60;99.90;;;;;;5065290;28;20201;-37
2023/12/25 02:31:00;;;;;;;11.93;3.10;;;11.60;99.90;;;;;;5063168;28;20316;-38
2023/12/25 02:33:26;;;;;;;12.98;2.85;;;11.60;99.90;;;;;;5061643;28;20225;-39
2023/12/25 02:35:52;;;;;;;14.68;2.88;;;11.60;99.90;;;;;;5064247;28;20190;-39
2023/12/25 02:38:18;;;;;;;17.33;3.17;;;11.60;99.90;;;;;;5060948;28;20209;-39
2023/12/25 02:40:44;;;;;;;11.63;3.05;;;11.60;99.90;;;;;;5062749;28;20220;-45
2023/12/25 02:43:10;;;;;;;15.63;2.72;;;11.60;99.90;;;;;;5063662;28;20301;-37
2023/12/25 02:45:37;;;;;;;15.48;3.15;;;11.60;99.90;;;;;;5064042;28;20217;-39
2023/12/25 02:48:03;;;;;;;15.77;2.72;;;11.60;99.90;;;;;;5063139;28;20569;-36
2023/12/25 02:50:29;;;;;;;19.20;3.47;;;11.60;99.90;;;;;;5061251;28;20178;-39
2023/12/25 02:52:55;;;;;;;16.70;3.28;;;11.60;99.90;;;;;;5061592;28;20190;-37
2023/12/25 02:55:21;;;;;;;15.88;3.70;;;11.50;99.90;;;;;;5063042;28;20603;-38
2023/12/25 02:57:48;;;;;;;22.60;3.72;;;11.60;99.90;;;;;;5062390;28;20191;-39
2023/12/25 03:00:14;;;;;;;14.88;3.33;;;11.60;99.90;;;;;;5061794;28;20282;-36
2023/12/25 03:02:40;;;;;;;21.17;3.88;;;11.60;99.90;;;;;;5061849;28;20690;-40
2023/12/25 03:05:06;;;;;;;23.15;3.92;;;11.60;99.90;;;;;;5062877;28;20189;-39
2023/12/25 03:07:32;;;;;;;15.77;3.00;;;11.60;99.90;;;;;;5061141;28;20284;-37
2023/12/25 03:09:58;;;;;;;22.90;3.75;;;11.60;99.90;;;;;;5061224;28;20331;-39
2023/12/25 03:12:24;;;;;;;19.65;3.60;;;11.60;99.90;;;;;;5062221;28;20199;-40
2023/12/25 03:14:50;;;;;;;17.15;3.88;;;11.60;99.90;;;;;;5061906;28;20189;-38
2023/12/25 03:17:15;;;;;;;17.70;3.97;;;11.60;99.90;;;;;;5059463;28;20198;-38
2023/12/25 03:19:42;;;;;;;15.35;4.03;;;11.60;99.90;;;;;;5062666;28;20587;-38
2023/12/25 03:22:08;;;;;;;20.42;4.70;;;11.60;99.90;;;;;;5078250;28;20182;-38
2023/12/25 03:24:34;;;;;;;22.65;4.00;;;11.60;99.90;;;;;;5044390;28;20194;-36
2023/12/25 03:27:00;;;;;;;26.23;3.90;;;11.60;99.90;;;;;;5061246;28;20190;-39
2023/12/25 03:29:26;;;;;;;19.05;3.85;;;11.60;99.90;;;;;;5063183;28;20654;-39
2023/12/25 03:31:52;;;;;;;16.95;3.30;;;11.60;99.90;;;;;;5061684;28;20198;-40
2023/12/25 03:34:19;;;;;;;15.63;3.20;;;11.60;99.90;;;;;;5062021;28;20297;-39
2023/12/25 03:36:46;;;;;;;17.38;2.83;;;11.60;99.90;;;;;;5079034;28;20217;-38
2023/12/25 03:39:11;;;;;;;13.10;2.70;;;11.60;99.90;;;;;;5076495;28;20182;-38
2023/12/25 03:41:37;;;;;;;21.92;3.25;;;11.60;99.90;;;;;;5062654;28;20205;-38
2023/12/25 03:44:03;;;;;;;15.73;3.05;;;11.50;99.90;;;;;;5062520;28;20221;-40
2023/12/25 03:46:29;;;;;;;14.73;2.50;;;11.50;99.90;;;;;;5062620;28;20244;-39
2023/12/25 03:48:55;;;;;;;9.10;2.30;;;11.50;99.90;;;;;;5044216;28;20608;-38
2023/12/25 03:51:22;;;;;;;13.05;2.70;;;11.50;99.90;;;;;;5061654;28;20186;-38
2023/12/25 03:53:48;;;;;;;12.93;2.65;;;11.50;99.90;;;;;;5060682;28;20205;-39
2023/12/25 03:56:17;;;;;;;25.00;3.08;;;11.40;99.90;;;;;;5063181;28;20191;-39
2023/12/25 03:58:44;;;;;;;15.23;3.03;;;11.40;99.90;;;;;;5061957;28;20566;-40
2023/12/25 04:01:13;;;;;;;16.20;2.78;;;11.40;99.90;;;;;;5061642;28;20564;-37
2023/12/25 04:03:38;;;;;;;12.65;2.15;;;11.40;99.90;;;;;;5079196;28;20214;-37
2023/12/25 04:06:05;;;;;;;15.65;2.65;;;11.40;99.90;;;;;;5043961;28;20205;-40
2023/12/25 04:08:32;;;;;;;16.85;3.00;;;11.40;99.90;;;;;;5076967;28;20228;-40
2023/12/25 04:10:58;;;;;;;23.13;3.13;;;11.40;99.90;;;;;;5061930;28;20637;-40
2023/12/25 04:13:23;;;;;;;11.63;2.40;;;11.40;99.90;;;;;;5044134;28;20194;-38
2023/12/25 04:15:49;;;;;;;7.85;1.92;;;11.40;99.90;;;;;;5061836;28;20677;-40
2023/12/25 04:18:15;;;;;;;14.23;2.78;;;11.50;99.90;;;;;;5060314;28;20197;-41
2023/12/25 04:20:41;;;;;;;16.30;3.03;;;11.50;99.90;;;;;;5078495;28;20192;-40
2023/12/25 04:23:07;;;;;;;14.23;2.53;;;11.50;99.90;;;;;;5061342;28;20211;-42
2023/12/25 04:25:33;;;;;;;16.13;2.65;;;11.50;99.90;;;;;;5059870;28;21081;-39
2023/12/25 04:27:59;;;;;;;14.30;2.45;;;11.50;99.90;;;;;;5059965;28;20189;-39
2023/12/25 04:30:25;;;;;;;12.63;2.40;;;11.50;99.90;;;;;;5032598;28;20183;-39
2023/12/25 04:32:52;;;;;;;18.38;3.28;;;11.60;99.90;;;;;;5063735;28;20655;-37
2023/12/25 04:35:18;;;;;;;17.85;3.15;;;11.50;99.90;;;;;;5065698;28;20253;-41
2023/12/25 04:37:44;;;;;;;16.90;3.17;;;11.50;99.90;;;;;;5066024;28;20226;-41
2023/12/25 04:40:11;;;;;;;14.93;3.53;;;11.50;99.90;;;;;;5034972;28;20218;-38
2023/12/25 04:42:38;;;;;;;16.50;3.47;;;11.50;99.90;;;;;;5061915;28;20276;-38
2023/12/25 04:45:04;;;;;;;17.33;3.28;;;11.50;99.90;;;;;;5065606;28;20190;-39
2023/12/25 04:47:30;;;;;;;11.13;2.40;;;11.50;99.90;;;;;;5064085;28;20777;-39
2023/12/25 04:49:56;;;;;;;13.77;3.08;;;11.50;99.90;;;;;;5064181;28;20197;-37
2023/12/25 04:52:22;;;;;;;17.85;3.35;;;11.50;99.90;;;;;;5065750;28;20190;-38
2023/12/25 04:54:48;;;;;;;18.63;3.50;;;11.50;99.90;;;;;;5065305;28;20189;-38
2023/12/25 04:57:14;;;;;;;17.58;3.80;;;11.50;99.90;;;;;;5081451;28;20189;-39
2023/12/25 04:59:40;;;;;;;20.35;3.03;;;11.50;99.90;;;;;;5063429;28;20598;-41
2023/12/25 05:02:06;;;;;;;11.93;2.40;;;11.50;99.90;;;;;;5065055;28;20179;-40
2023/12/25 05:04:32;;;;;;;16.05;2.97;;;11.40;99.90;;;;;;5066291;28;20925;-37
2023/12/25 05:06:58;;;;;;;14.30;2.90;;;11.40;99.90;;;;;;5064280;28;20183;-40
2023/12/25 05:09:24;;;;;;;13.20;2.55;;;11.40;99.90;;;;;;5063078;28;20646;-40
2023/12/25 05:11:49;;;;;;;14.35;2.58;;;11.40;99.90;;;;;;5065267;28;20682;-37
2023/12/25 05:14:15;;;;;;;13.32;2.88;;;11.40;99.90;;;;;;5062491;28;20259;-38
2023/12/25 05:16:41;;;;;;;17.67;3.08;;;11.30;99.90;;;;;;5063832;28;20248;-40
2023/12/25 05:19:10;;;;;;;17.55;2.97;;;11.20;99.90;;;;;;5063738;28;20198;-38
2023/12/25 05:21:36;;;;;;;15.45;3.03;;;11.20;99.90;;;;;;5064409;28;20201;-40
2023/12/25 05:24:01;;;;;;;14.95;3.00;;;11.20;99.90;;;;;;5063537;28;20605;-36
2023/12/25 05:26:27;;;;;;;19.83;3.25;;;11.10;99.90;;;;;;5064127;28;20201;-36
2023/12/25 05:28:53;;;;;;;21.75;3.38;;;11.10;99.90;;;;;;5061024;28;20194;-41
2023/12/25 05:31:19;;;;;;;16.10;3.25;;;11.10;99.90;;;;;;5063610;28;20194;-41
2023/12/25 05:33:45;;;;;;;19.13;3.45;;;11.10;99.90;;;;;;5064109;28;20437;-38
2023/12/25 05:36:11;;;;;;;12.63;3.03;;;11.10;99.90;;;;;;5064005;28;20195;-41
2023/12/25 05:38:36;;;;;;;19.35;3.10;;;11.10;99.90;;;;;;5064093;28;20655;-36
2023/12/25 05:41:02;;;;;;;16.08;2.97;;;11.00;99.90;;;;;;5061881;28;20647;-37
2023/12/25 05:43:29;;;;;;;20.73;2.78;;;11.00;99.90;;;;;;5061877;28;20221;-39
2023/12/25 05:45:55;;;;;;;16.42;2.65;;;11.00;99.90;;;;;;5062513;28;20663;-40
2023/12/25 05:48:21;;;;;;;20.33;3.33;;;10.90;99.90;;;;;;5063311;28;20195;-38
2023/12/25 05:50:46;;;;;;;13.82;3.20;;;10.90;99.90;;;;;;5062305;28;20204;-37
2023/12/25 05:53:12;;;;;;;17.55;2.92;;;10.90;99.90;;;;;;5063133;28;20241;-40
2023/12/25 05:55:38;;;;;;;17.25;2.65;;;10.90;99.90;;;;;;5063459;28;20190;-38
2023/12/25 05:58:04;;;;;;;16.80;3.13;;;10.90;99.90;;;;;;5064618;28;20201;-41
2023/12/25 06:00:30;;;;;;;13.18;3.30;;;10.80;99.90;;;;;;5062428;28;20183;-37
2023/12/25 06:02:56;;;;;;;17.00;3.08;;;10.80;99.90;;;;;;5062105;28;20210;-38
2023/12/25 06:05:21;;;;;;;10.70;2.30;;;10.80;99.90;;;;;;5062818;28;20237;-41
2023/12/25 06:07:47;;;;;;;11.48;2.45;;;10.80;99.90;;;;;;5062109;28;20186;-38
2023/12/25 06:10:13;;;;;;;12.45;2.72;;;10.80;99.90;;;;;;5061248;28;20191;-41
2023/12/25 06:12:40;;;;;;;15.05;2.67;;;10.80;99.90;;;;;;5064708;28;20186;-42
2023/12/25 06:15:08;;;;;;;15.85;2.58;;;10.80;99.90;;;;;;5077385;28;20217;-40
2023/12/25 06:17:35;;;;;;;18.55;3.33;;;10.80;99.90;;;;;;5061716;28;20374;-40
2023/12/25 06:20:04;;;;;;;14.07;3.15;;;10.80;99.90;;;;;;5063754;28;20571;-39
2023/12/25 06:22:30;;;;;;;14.98;2.88;;;10.80;99.90;;;;;;5062788;28;20289;-39
2023/12/25 06:24:56;;;;;;;22.15;3.33;;;10.70;99.90;;;;;;5045184;28;20187;-38
2023/12/25 06:27:22;;;;;;;16.42;2.70;;;10.70;99.90;;;;;;5063440;28;20205;-40
2023/12/25 06:29:48;;;;;;;12.45;2.45;;;10.70;99.90;;;;;;5062236;28;20185;-36
2023/12/25 06:32:14;;;;;;;11.50;2.83;;;10.70;99.90;;;;;;5061039;28;20262;-39
2023/12/25 06:34:40;;;;;;;14.50;3.13;;;10.70;99.90;;;;;;5079147;28;20218;-39
2023/12/25 06:37:06;;;;;;;19.63;3.70;;;10.70;99.90;;;;;;5061334;28;20274;-39
2023/12/25 06:39:32;;;;;;;21.60;3.25;;;10.60;99.90;;;;;;5061335;28;20201;-37
2023/12/25 06:41:57;;;;;;;13.98;2.78;;;10.60;99.90;;;;;;5062265;28;20239;-37
2023/12/25 06:44:23;;;;;;;15.48;3.10;;;10.60;99.90;;;;;;5062344;28;20325;-40
2023/12/25 06:46:49;;;;;;;12.05;2.67;;;10.60;99.90;;;;;;5061224;28;20187;-39
2023/12/25 06:49:15;;;;;;;19.70;2.92;;;10.60;99.90;;;;;;5061954;28;20298;-38
2023/12/25 06:51:43;;;;;;;26.70;4.22;;;10.60;99.90;;;;;;5062351;28;20187;-38
2023/12/25 06:54:09;;;;;;;23.40;3.53;;;10.60;99.90;;;;;;5063333;28;20666;-37
2023/12/25 06:56:35;;;;;;;26.20;4.30;;;10.60;99.90;;;;;;5063116;28;20205;-36
2023/12/25 06:59:01;;;;;;;15.55;3.20;;;10.70;99.90;;;;;;5061552;28;20222;-36
2023/12/25 07:01:27;;;;;;;15.57;3.53;;;10.70;99.90;;;;;;5062395;28;21082;-38
2023/12/25 07:03:52;;;;;;;17.27;3.78;;;10.70;99.90;;;;;;5060950;28;20225;-38
2023/12/25 07:06:18;;;;;;;24.67;3.30;;;10.70;99.90;;;;;;5062169;28;20179;-39
2023/12/25 07:08:45;;;;;;;18.08;3.70;;;10.70;99.90;;;;;;5063170;28;20253;-37
2023/12/25 07:11:12;;;;;;;22.45;3.95;;;10.70;99.90;;;;;;5059888;28;21328;-38
2023/12/25 07:13:38;;;;;;;18.65;3.17;;;10.70;99.90;;;;;;5062728;28;20300;-40
2023/12/25 07:16:05;;;;;;;22.25;3.50;;;10.80;99.90;;;;;;5062196;28;20191;-37
2023/12/25 07:18:30;;;;;;;22.88;3.85;;;10.70;99.90;;;;;;5062222;28;20191;-37
2023/12/25 07:20:56;;;;;;;18.73;3.08;;;10.70;99.90;;;;;;5062985;28;20205;-40
2023/12/25 07:23:22;;;;;;;18.45;3.15;;;10.70;99.90;;;;;;5057498;28;20206;-40
2023/12/25 07:25:48;;;;;;;15.48;3.05;;;10.70;99.90;;;;;;5063266;28;20193;-37
2023/12/25 07:28:14;;;;;;;20.60;3.67;;;10.60;99.90;;;;;;5063519;28;20229;-39
2023/12/25 07:30:40;;;;;;;17.27;3.30;;;10.70;99.90;;;;;;5061133;28;20187;-36
2023/12/25 07:33:06;;;;;;;16.88;2.65;;;10.70;99.90;;;;;;5062622;28;20214;-41
2023/12/25 07:35:32;;;;;;;20.05;3.30;;;10.70;99.90;;;;;;5062649;28;20206;-38
2023/12/25 07:37:59;;;;;;;18.73;2.78;;;10.70;99.90;;;;;;5062227;28;20194;-39
2023/12/25 07:40:25;;;;;;;20.63;2.90;;;10.70;99.90;;;;;;5061170;28;20194;-39
2023/12/25 07:42:51;;;;;;;11.98;3.00;;;10.70;99.90;;;;;;5063519;28;20222;-38
2023/12/25 07:45:17;;;;;;;21.70;3.17;;;10.70;99.90;;;;;;5059857;28;20201;-41
2023/12/25 07:47:42;;;;;;;15.60;3.05;;;10.70;99.90;;;;;;5062759;28;20187;-40
2023/12/25 07:50:09;;;;;;;13.90;2.67;;;10.70;99.90;;;;;;5061877;28;20187;-40
2023/12/25 07:52:35;;;;;;;21.35;3.25;;;10.70;99.90;;;;;;5061980;28;20187;-39
2023/12/25 07:55:01;;;;;;;15.75;2.88;;;10.70;99.90;;;;;;5061989;28;20199;-39
2023/12/25 07:57:27;;;;;;;16.98;3.38;;;10.70;99.90;;;;;;5062402;28;20191;-40
2023/12/25 07:59:53;;;;;;;16.80;2.88;;;10.80;99.90;;;;;;5061908;28;20259;-37
2023/12/25 08:02:18;;;;;;;19.70;3.15;;;10.80;99.90;;;;;;5062612;28;20187;-39
2023/12/25 08:04:44;;;;;;;21.17;2.90;;;10.80;99.90;;;;;;5059993;28;20283;-43
2023/12/25 08:07:10;;;;;;;11.05;2.58;;;10.70;99.90;;;;;;5063681;28;20174;-38
2023/12/25 08:09:36;;;;;;;19.30;3.00;;;10.70;99.90;;;;;;5066366;28;20190;-40
2023/12/25 08:12:02;;;;;;;18.60;2.95;;;10.60;99.90;;;;;;5063631;28;20182;-40
2023/12/25 08:14:28;;;;;;;19.33;3.10;;;10.60;99.90;;;;;;5064664;28;20190;-41
2023/12/25 08:16:54;;;;;;;13.93;2.83;;;10.50;99.90;;;;;;5065447;28;20280;-40
2023/12/25 08:19:20;;;;;;;21.33;3.22;;;10.40;99.90;;;;;;5064397;28;20232;-39
2023/12/25 08:21:46;;;;;;;13.55;2.65;;;10.40;99.90;;;;;;5065557;28;20190;-41
2023/12/25 08:24:12;;;;;;;10.45;2.40;;;10.30;99.90;;;;;;5063878;28;20666;-36
2023/12/25 08:26:37;;;;;;;15.73;2.83;;;10.30;99.90;;;;;;5063850;28;20216;-39
2023/12/25 08:29:03;;;;;;;14.00;2.40;;;10.30;99.90;;;;;;5064882;28;20236;-40
2023/12/25 08:31:29;;;;;;;11.05;2.30;;;10.20;99.90;;;;;;5067260;28;20190;-41
2023/12/25 08:33:55;;;;;;;11.52;2.17;;;10.20;99.90;;;;;;5079520;28;20229;-40
2023/12/25 08:36:21;;;;;;;13.27;2.72;;;10.20;99.90;;;;;;5062743;28;20218;-40
2023/12/25 08:38:47;;;;;;;10.50;2.28;;;10.20;99.90;;;;;;5064748;28;20186;-39
2023/12/25 08:41:12;;;;;;;14.45;2.50;;;10.10;99.90;;;;;;5064799;28;21283;-42
2023/12/25 08:43:38;;;;;;;15.32;2.47;;;10.10;99.90;;;;;;5063378;28;20697;-40
2023/12/25 08:46:05;;;;;;;14.13;2.72;;;10.10;99.90;;;;;;5066585;28;20218;-44
2023/12/25 08:48:31;;;;;;;12.15;2.28;;;10.10;99.90;;;;;;5064790;28;20642;-40
2023/12/25 08:50:57;;;;;;;11.57;2.20;;;10.10;99.90;;;;;;5061410;28;20197;-39
2023/12/25 08:53:22;;;;;;;13.95;2.30;;;10.10;99.90;;;;;;5064435;28;20201;-38
2023/12/25 08:55:48;;;;;;;14.77;2.75;;;10.10;99.90;;;;;;5065828;28;20193;-41
2023/12/25 08:58:14;;;;;;;11.77;2.25;;;10.00;99.90;;;;;;5063654;28;20270;-45
2023/12/25 09:00:40;;;;;;;12.88;1.98;;;10.00;99.90;;;;;;5064223;28;20550;-39
2023/12/25 09:03:06;;;;;;;13.07;2.08;;;9.90;99.90;;;;;;5063830;28;20214;-38
2023/12/25 09:05:32;;;;;;;11.07;2.08;;;9.90;99.90;;;;;;5065311;28;20708;-39
2023/12/25 09:07:58;;;;;;;15.85;2.33;;;9.90;99.90;;;;;;5064214;28;20285;-39
2023/12/25 09:10:24;;;;;;;12.63;2.25;;;9.90;99.90;;;;;;5064322;28;20187;-40
2023/12/25 09:12:50;;;;;;;11.05;2.30;;;9.90;99.90;;;;;;5064218;28;20202;-38
2023/12/25 09:15:16;;;;;;;9.60;2.15;;;9.90;99.90;;;;;;5064361;28;20179;-40
2023/12/25 09:17:42;;;;;;;8.50;1.92;;;9.90;99.90;;;;;;5064166;28;20567;-40
2023/12/25 09:20:08;;;;;;;10.05;2.05;;;9.80;99.90;;;;;;5064383;28;20179;-40
2023/12/25 09:22:35;;;;;;;11.40;1.90;;;9.90;99.90;;;;;;5063103;28;20194;-41
2023/12/25 09:25:00;;;;;;;14.70;2.30;;;9.90;99.90;;;;;;5065143;28;20186;-38
2023/12/25 09:27:29;;;;;;;14.02;2.42;;;9.90;99.90;;;;;;5080272;28;20301;-43
2023/12/25 09:29:55;;;;;;;13.75;2.22;;;9.90;99.90;;;;;;5064349;28;20186;-37
2023/12/25 09:32:21;;;;;;;17.38;2.85;;;9.90;99.90;;;;;;5062962;28;20259;-39
2023/12/25 09:34:47;;;;;;;9.73;2.20;;;9.90;99.90;;;;;;5063972;28;20268;-42
2023/12/25 09:37:13;;;;;;;12.30;2.10;;;10.00;99.90;;;;;;5064469;28;20190;-41
2023/12/25 09:39:39;;;;;;;11.45;2.20;;;10.00;99.90;;;;;;5064667;28;20235;-38
2023/12/25 09:42:06;;;;;;;8.73;1.70;;;10.00;99.90;;;;;;5062848;28;20183;-38
2023/12/25 09:44:32;;;;;;;14.90;2.47;;;10.00;99.90;;;;;;5063471;28;20257;-41
2023/12/25 09:46:59;;;;;;;13.35;2.30;;;10.00;99.90;;;;;;5064103;28;20219;-40
2023/12/25 09:49:27;;;;;;;15.50;2.47;;;10.00;99.90;;;;;;5063579;28;20650;-36
2023/12/25 09:51:57;;;;;;;12.10;2.38;;;10.10;99.90;;;;;;5063425;28;20174;-37
2023/12/25 09:54:23;;;;;;;9.73;2.05;;;10.00;99.90;;;;;;5064422;28;20209;-37
2023/12/25 09:56:51;;;;;;;14.05;3.10;;;10.00;99.90;;;;;;5061578;28;20578;-40
2023/12/25 09:59:18;;;;;;;14.15;2.33;;;10.00;99.90;;;;;;5064548;28;20574;-42
2023/12/25 10:01:44;;;;;;;11.40;2.13;;;10.00;99.90;;;;;;5063569;28;20190;-40
2023/12/25 10:04:10;;;;;;;12.90;2.35;;;10.00;99.90;;;;;;5062505;28;20256;-38
2023/12/25 10:06:36;;;;;;;12.90;2.08;;;10.00;99.90;;;;;;5064003;28;20260;-40
2023/12/25 10:09:03;;;;;;;9.85;2.15;;;10.00;99.90;;;;;;5063378;28;20186;-38
2023/12/25 10:11:29;;;;;;;12.88;2.55;;;10.10;99.90;;;;;;5062075;28;20206;-39
2023/12/25 10:13:55;;;;;;;11.73;2.85;;;10.10;99.90;;;;;;5063476;28;20203;-40
2023/12/25 10:16:23;;;;;;;9.90;2.72;;;10.10;99.90;;;;;;5064220;28;20240;-40
2023/12/25 10:18:49;;;;;;;12.00;2.55;;;10.10;99.90;;;;;;5062485;28;20194;-38
2023/12/25 10:21:15;;;;;;;12.00;3.13;;;10.20;99.90;;;;;;5062158;28;20190;-39
2023/12/25 10:23:41;;;;;;;13.82;2.95;;;10.20;99.90;;;;;;5063222;28;20249;-40
2023/12/25 10:26:07;;;;;;;14.05;3.30;;;10.30;99.90;;;;;;5061072;28;20214;-38
2023/12/25 10:28:35;;;;;;;11.10;2.83;;;10.40;99.90;;;;;;5063044;28;20363;-38
2023/12/25 10:31:02;;;;;;;14.10;3.17;;;10.50;99.90;;;;;;5062269;28;20273;-39
2023/12/25 10:33:31;;;;;;;12.80;3.53;;;10.50;99.90;;;;;;5060655;28;20186;-41
2023/12/25 10:36:09;;;;;;;10.68;3.10;;;10.50;99.90;;;;;;5063367;28;20240;-39
2023/12/25 10:38:38;;;;;;;19.00;3.88;;;10.50;99.90;;;;;;5063048;28;20246;-39
2023/12/25 10:41:27;;;;;;;11.43;2.65;;;10.50;99.90;;;;;;5062149;28;20760;-39
2023/12/25 10:43:58;;;;;;;17.92;3.10;;;10.60;99.90;;;;;;5048124;28;20686;-42
2023/12/25 10:46:26;;;;;;;12.55;2.42;;;10.60;99.90;;;;;;5063701;28;20194;-39
2023/12/25 10:48:55;;;;;;;16.30;2.80;;;10.60;99.90;;;;;;5077515;28;20232;-38
2023/12/25 10:51:46;;;;;;;11.45;2.40;;;10.60;99.90;;;;;;5062721;28;20183;-41
2023/12/25 10:54:13;;;;;;;8.75;2.33;;;10.60;99.90;;;;;;5061828;28;20194;-42
2023/12/25 10:56:39;;;;;;;10.88;2.58;;;10.70;99.90;;;;;;5062355;28;20190;-39
2023/12/25 10:59:16;;;;;;;12.15;2.60;;;10.70;99.90;;;;;;5063488;28;20277;-38
2023/12/25 11:01:48;;;;;;;14.55;3.35;;;10.80;99.90;;;;;;5062274;28;20264;-40
2023/12/25 11:04:18;;;;;;;19.02;3.45;;;10.80;99.90;;;;;;5061820;28;20214;-43
2023/12/25 11:06:44;;;;;;;18.27;4.43;;;10.90;99.90;;;;;;5064031;28;20194;-40
2023/12/25 11:09:11;;;;;;;17.42;3.97;;;10.90;99.90;;;;;;5061599;28;20214;-41
2023/12/25 11:11:38;;;;;;;16.40;3.33;;;11.00;99.90;;;;;;5062305;28;20306;-41
2023/12/25 11:14:06;;;;;;;17.70;2.90;;;11.10;99.90;;;;;;5062782;28;20190;-41
2023/12/25 11:16:33;;;;;;;10.70;2.70;;;11.10;99.90;;;;;;5061388;28;20657;-38
2023/12/25 11:19:00;;;;;;;15.27;2.70;;;11.20;99.90;;;;;;5061330;28;20195;-39
2023/12/25 11:21:30;;;;;;;12.52;2.53;;;11.20;99.90;;;;;;5063566;28;20190;-38
2023/12/25 11:23:59;;;;;;;17.90;2.90;;;11.20;99.90;;;;;;5062208;28;20206;-39
2023/12/25 11:26:30;;;;;;;11.43;2.80;;;11.30;99.90;;;;;;5077260;28;20263;-41
2023/12/25 11:29:01;;;;;;;14.10;2.70;;;11.30;99.90;;;;;;5062935;28;20198;-41
2023/12/25 11:31:28;;;;;;;13.60;2.95;;;11.30;99.90;;;;;;5062072;28;20191;-41
2023/12/25 11:34:19;;;;;;;15.93;2.95;;;11.30;99.90;;;;;;5062192;28;20827;-39
2023/12/25 11:36:47;;;;;;;15.93;3.00;;;11.30;99.90;;;;;;5061217;28;20257;-42
2023/12/25 11:39:13;;;;;;;17.17;3.22;;;11.40;99.90;;;;;;5060764;28;20222;-39
2023/12/25 11:41:39;;;;;;;22.13;2.90;;;11.40;99.90;;;;;;5064251;28;20233;-40
2023/12/25 11:44:08;;;;;;;16.45;3.10;;;11.40;99.90;;;;;;5065656;28;20217;-41
2023/12/25 11:46:43;;;;;;;21.50;3.50;;;11.30;99.90;;;;;;5066521;28;20259;-41
2023/12/25 11:49:09;;;;;;;16.83;5.63;;;11.30;99.90;;;;;;5066908;28;20178;-44
2023/12/25 11:51:45;;;;;;;15.48;3.17;;;11.30;99.90;;;;;;5066128;28;20583;-40
2023/12/25 11:54:11;;;;;;;19.40;3.78;;;11.20;99.90;;;;;;5066818;28;20190;-39
2023/12/25 11:56:38;;;;;;;17.38;3.40;;;11.20;99.90;;;;;;5065914;28;20201;-42
2023/12/25 11:59:04;;;;;;;16.13;3.00;;;11.10;99.90;;;;;;5066410;28;20768;-37
2023/12/25 12:01:31;;;;;;;16.77;3.33;;;11.10;99.90;;;;;;5064444;28;20186;-41
2023/12/25 12:03:57;;;;;;;21.45;3.50;;;11.10;99.90;;;;;;5065602;28;20242;-38
2023/12/25 12:06:23;;;;;;;16.50;3.35;;;11.10;99.90;;;;;;5066606;28;20300;-39
2023/12/25 12:08:49;;;;;;;19.40;3.38;;;11.10;99.90;;;;;;5065672;28;20277;-38
2023/12/25 12:11:16;;;;;;;21.80;3.70;;;11.10;99.90;;;;;;5065278;28;20888;-37
2023/12/25 12:13:43;;;;;;;19.50;3.55;;;11.10;99.90;;;;;;5066207;28;20277;-39
2023/12/25 12:16:08;;;;;;;16.35;3.83;;;11.10;99.90;;;;;;5065315;28;20198;-39
2023/12/25 12:18:35;;;;;;;18.60;3.78;;;11.10;99.90;;;;;;5064795;28;20556;-41
2023/12/25 12:21:01;;;;;;;21.95;3.28;;;11.20;99.90;;;;;;5065321;28;20218;-39
2023/12/25 12:23:28;;;;;;;18.27;3.33;;;11.10;99.90;;;;;;5067155;28;20272;-41
2023/12/25 12:25:54;;;;;;;16.05;3.28;;;11.10;99.90;;;;;;5063201;28;20191;-38
2023/12/25 12:28:20;;;;;;;16.20;3.35;;;11.10;99.90;;;;;;5065675;28;20190;-36
2023/12/25 12:30:46;;;;;;;16.92;3.42;;;11.10;99.90;;;;;;5065919;28;20657;-38
2023/12/25 12:33:13;;;;;;;16.95;3.83;;;11.10;99.90;;;;;;5080438;28;20186;-40
2023/12/25 12:35:39;;;;;;;18.63;4.35;;;11.10;99.90;;;;;;5065195;28;20710;-36